sensor_id;sensor_type;location;lat;lon;timestamp;P1;durP1;ratioP1;P2;durP2;ratioP2
62149;SDS011;48134;53.586;10.610;2024-03-25T00:01:13;4.32;;;1.60;;
62149;SDS011;48134;53.586;10.610;2024-03-25T00:03:41;5.70;;;1.73;;
62149;SDS011;48134;53.586;10.610;2024-03-25T00:06:11;3.92;;;1.58;;
62149;SDS011;48134;53.586;10.610;2024-03-25T00:08:37;4.47;;;1.67;;
62149;SDS011;48134;53.586;10.610;2024-03-25T00:11:08;4.55;;;1.50;;
62149;SDS011;48134;53.586;10.610;2024-03-25T00:13:34;5.75;;;1.80;;
62149;SDS011;48134;53.586;10.610;2024-03-25T00:16:02;7.78;;;2.03;;
62149;SDS011;48134;53.586;10.610;2024-03-25T00:18:31;8.57;;;2.10;;
62149;SDS011;48134;53.586;10.610;2024-03-25T00:20:59;8.83;;;2.67;;
62149;SDS011;48134;53.586;10.610;2024-03-25T00:23:26;7.60;;;2.70;;
62149;SDS011;48134;53.586;10.610;2024-03-25T00:25:53;9.20;;;2.72;;
62149;SDS011;48134;53.586;10.610;2024-03-25T00:28:20;8.55;;;3.00;;
62149;SDS011;48134;53.586;10.610;2024-03-25T00:30:47;11.90;;;3.20;;
62149;SDS011;48134;53.586;10.610;2024-03-25T00:33:14;12.45;;;3.45;;
62149;SDS011;48134;53.586;10.610;2024-03-25T00:35:42;10.32;;;3.50;;
62149;SDS011;48134;53.586;10.610;2024-03-25T00:38:10;10.20;;;3.28;;
62149;SDS011;48134;53.586;10.610;2024-03-25T00:40:38;14.02;;;3.63;;
62149;SDS011;48134;53.586;10.610;2024-03-25T00:43:04;11.57;;;3.50;;
62149;SDS011;48134;53.586;10.610;2024-03-25T00:45:32;11.55;;;3.22;;
62149;SDS011;48134;53.586;10.610;2024-03-25T00:47:58;11.57;;;3.60;;
62149;SDS011;48134;53.586;10.610;2024-03-25T00:50:26;14.00;;;3.42;;
62149;SDS011;48134;53.586;10.610;2024-03-25T00:52:53;15.45;;;3.85;;
62149;SDS011;48134;53.586;10.610;2024-03-25T00:55:21;13.20;;;3.63;;
62149;SDS011;48134;53.586;10.610;2024-03-25T00:57:48;15.65;;;3.65;;
62149;SDS011;48134;53.586;10.610;2024-03-25T01:00:16;12.52;;;3.60;;
62149;SDS011;48134;53.586;10.610;2024-03-25T01:02:43;15.25;;;3.75;;
62149;SDS011;48134;53.586;10.610;2024-03-25T01:05:10;12.70;;;3.20;;
62149;SDS011;48134;53.586;10.610;2024-03-25T01:07:37;14.77;;;3.85;;
62149;SDS011;48134;53.586;10.610;2024-03-25T01:10:05;13.60;;;4.10;;
62149;SDS011;48134;53.586;10.610;2024-03-25T01:12:33;12.68;;;3.80;;
62149;SDS011;48134;53.586;10.610;2024-03-25T01:15:01;11.25;;;3.35;;
62149;SDS011;48134;53.586;10.610;2024-03-25T01:17:28;10.32;;;3.53;;
62149;SDS011;48134;53.586;10.610;2024-03-25T01:19:56;11.70;;;3.95;;
62149;SDS011;48134;53.586;10.610;2024-03-25T01:22:22;13.38;;;3.60;;
62149;SDS011;48134;53.586;10.610;2024-03-25T01:24:50;11.68;;;3.72;;
62149;SDS011;48134;53.586;10.610;2024-03-25T01:27:16;12.35;;;3.65;;
62149;SDS011;48134;53.586;10.610;2024-03-25T01:29:45;13.25;;;3.42;;
62149;SDS011;48134;53.586;10.610;2024-03-25T01:32:11;12.60;;;3.80;;
62149;SDS011;48134;53.586;10.610;2024-03-25T01:34:39;12.63;;;3.58;;
62149;SDS011;48134;53.586;10.610;2024-03-25T01:37:06;16.15;;;3.58;;
62149;SDS011;48134;53.586;10.610;2024-03-25T01:39:33;11.00;;;3.50;;
62149;SDS011;48134;53.586;10.610;2024-03-25T01:41:59;9.60;;;3.42;;
62149;SDS011;48134;53.586;10.610;2024-03-25T01:44:27;13.52;;;3.72;;
62149;SDS011;48134;53.586;10.610;2024-03-25T01:46:55;9.77;;;3.40;;
62149;SDS011;48134;53.586;10.610;2024-03-25T01:49:22;11.45;;;3.45;;
62149;SDS011;48134;53.586;10.610;2024-03-25T01:51:49;16.92;;;3.55;;
62149;SDS011;48134;53.586;10.610;2024-03-25T01:54:16;11.48;;;3.45;;
62149;SDS011;48134;53.586;10.610;2024-03-25T01:56:43;10.25;;;3.30;;
62149;SDS011;48134;53.586;10.610;2024-03-25T01:59:12;11.48;;;3.33;;
62149;SDS011;48134;53.586;10.610;2024-03-25T02:01:40;12.93;;;3.13;;
62149;SDS011;48134;53.586;10.610;2024-03-25T02:04:10;9.55;;;3.20;;
62149;SDS011;48134;53.586;10.610;2024-03-25T02:06:39;13.10;;;3.50;;
62149;SDS011;48134;53.586;10.610;2024-03-25T02:09:09;10.95;;;3.60;;
62149;SDS011;48134;53.586;10.610;2024-03-25T02:11:36;11.70;;;3.60;;
62149;SDS011;48134;53.586;10.610;2024-03-25T02:14:04;10.98;;;3.67;;
62149;SDS011;48134;53.586;10.610;2024-03-25T02:16:31;11.88;;;3.50;;
62149;SDS011;48134;53.586;10.610;2024-03-25T02:18:59;12.33;;;3.80;;
62149;SDS011;48134;53.586;10.610;2024-03-25T02:21:26;10.07;;;3.70;;
62149;SDS011;48134;53.586;10.610;2024-03-25T02:23:54;10.40;;;3.17;;
62149;SDS011;48134;53.586;10.610;2024-03-25T02:26:26;9.80;;;3.20;;
62149;SDS011;48134;53.586;10.610;2024-03-25T02:28:55;10.45;;;3.22;;
62149;SDS011;48134;53.586;10.610;2024-03-25T02:31:21;10.05;;;3.38;;
62149;SDS011;48134;53.586;10.610;2024-03-25T02:33:49;10.77;;;3.50;;
62149;SDS011;48134;53.586;10.610;2024-03-25T02:36:15;12.18;;;3.42;;
62149;SDS011;48134;53.586;10.610;2024-03-25T02:38:43;10.57;;;3.45;;
62149;SDS011;48134;53.586;10.610;2024-03-25T02:41:10;9.15;;;3.22;;
62149;SDS011;48134;53.586;10.610;2024-03-25T02:43:39;13.30;;;3.43;;
62149;SDS011;48134;53.586;10.610;2024-03-25T02:46:05;10.33;;;3.30;;
62149;SDS011;48134;53.586;10.610;2024-03-25T02:48:33;9.30;;;3.28;;
62149;SDS011;48134;53.586;10.610;2024-03-25T02:50:59;9.85;;;3.03;;
62149;SDS011;48134;53.586;10.610;2024-03-25T02:53:27;14.00;;;3.75;;
62149;SDS011;48134;53.586;10.610;2024-03-25T02:55:53;11.07;;;3.45;;
62149;SDS011;48134;53.586;10.610;2024-03-25T02:58:21;11.93;;;3.38;;
62149;SDS011;48134;53.586;10.610;2024-03-25T03:00:49;8.07;;;2.70;;
62149;SDS011;48134;53.586;10.610;2024-03-25T03:03:16;6.22;;;1.92;;
62149;SDS011;48134;53.586;10.610;2024-03-25T03:05:43;4.70;;;1.57;;
62149;SDS011;48134;53.586;10.610;2024-03-25T03:08:10;4.40;;;1.80;;
62149;SDS011;48134;53.586;10.610;2024-03-25T03:10:36;4.63;;;1.92;;
62149;SDS011;48134;53.586;10.610;2024-03-25T03:13:04;5.53;;;2.30;;
62149;SDS011;48134;53.586;10.610;2024-03-25T03:15:30;7.38;;;2.20;;
62149;SDS011;48134;53.586;10.610;2024-03-25T03:17:59;9.45;;;2.83;;
62149;SDS011;48134;53.586;10.610;2024-03-25T03:20:26;11.70;;;3.25;;
62149;SDS011;48134;53.586;10.610;2024-03-25T03:22:53;15.23;;;3.93;;
62149;SDS011;48134;53.586;10.610;2024-03-25T03:25:19;13.38;;;4.07;;
62149;SDS011;48134;53.586;10.610;2024-03-25T03:27:47;15.75;;;4.18;;
62149;SDS011;48134;53.586;10.610;2024-03-25T03:30:13;12.27;;;3.93;;
62149;SDS011;48134;53.586;10.610;2024-03-25T03:32:41;15.10;;;4.03;;
62149;SDS011;48134;53.586;10.610;2024-03-25T03:35:09;13.93;;;3.67;;
62149;SDS011;48134;53.586;10.610;2024-03-25T03:37:36;12.00;;;3.95;;
62149;SDS011;48134;53.586;10.610;2024-03-25T03:40:03;15.20;;;4.20;;
62149;SDS011;48134;53.586;10.610;2024-03-25T03:42:32;12.27;;;3.90;;
62149;SDS011;48134;53.586;10.610;2024-03-25T03:44:58;10.87;;;3.70;;
62149;SDS011;48134;53.586;10.610;2024-03-25T03:47:26;11.00;;;3.72;;
62149;SDS011;48134;53.586;10.610;2024-03-25T03:49:52;13.75;;;3.75;;
62149;SDS011;48134;53.586;10.610;2024-03-25T03:52:21;8.77;;;3.67;;
62149;SDS011;48134;53.586;10.610;2024-03-25T03:54:47;12.48;;;3.67;;
62149;SDS011;48134;53.586;10.610;2024-03-25T03:57:15;13.27;;;3.47;;
62149;SDS011;48134;53.586;10.610;2024-03-25T03:59:42;11.85;;;3.60;;
62149;SDS011;48134;53.586;10.610;2024-03-25T04:02:09;12.35;;;4.03;;
62149;SDS011;48134;53.586;10.610;2024-03-25T04:04:36;16.52;;;3.72;;
62149;SDS011;48134;53.586;10.610;2024-03-25T04:07:03;9.53;;;3.10;;
62149;SDS011;48134;53.586;10.610;2024-03-25T04:09:31;9.80;;;3.00;;
62149;SDS011;48134;53.586;10.610;2024-03-25T04:11:59;7.63;;;2.70;;
62149;SDS011;48134;53.586;10.610;2024-03-25T04:14:26;10.95;;;2.70;;
62149;SDS011;48134;53.586;10.610;2024-03-25T04:16:54;7.75;;;2.53;;
62149;SDS011;48134;53.586;10.610;2024-03-25T04:19:23;6.35;;;2.30;;
62149;SDS011;48134;53.586;10.610;2024-03-25T04:21:50;7.95;;;2.30;;
62149;SDS011;48134;53.586;10.610;2024-03-25T04:24:17;6.93;;;2.30;;
62149;SDS011;48134;53.586;10.610;2024-03-25T04:26:46;5.13;;;2.30;;
62149;SDS011;48134;53.586;10.610;2024-03-25T04:29:14;8.55;;;2.55;;
62149;SDS011;48134;53.586;10.610;2024-03-25T04:31:43;7.75;;;2.40;;
62149;SDS011;48134;53.586;10.610;2024-03-25T04:34:09;8.60;;;2.60;;
62149;SDS011;48134;53.586;10.610;2024-03-25T04:36:36;9.10;;;2.67;;
62149;SDS011;48134;53.586;10.610;2024-03-25T04:39:03;8.13;;;2.58;;
62149;SDS011;48134;53.586;10.610;2024-03-25T04:41:29;10.90;;;2.97;;
62149;SDS011;48134;53.586;10.610;2024-03-25T04:43:57;8.47;;;2.70;;
62149;SDS011;48134;53.586;10.610;2024-03-25T04:46:24;7.38;;;2.58;;
62149;SDS011;48134;53.586;10.610;2024-03-25T04:48:50;8.15;;;2.60;;
62149;SDS011;48134;53.586;10.610;2024-03-25T04:51:17;8.48;;;2.63;;
62149;SDS011;48134;53.586;10.610;2024-03-25T04:53:43;9.88;;;2.53;;
62149;SDS011;48134;53.586;10.610;2024-03-25T04:56:10;8.30;;;2.78;;
62149;SDS011;48134;53.586;10.610;2024-03-25T04:58:36;7.30;;;2.47;;
62149;SDS011;48134;53.586;10.610;2024-03-25T05:01:04;7.25;;;2.47;;
62149;SDS011;48134;53.586;10.610;2024-03-25T05:03:31;8.55;;;3.22;;
62149;SDS011;48134;53.586;10.610;2024-03-25T05:05:57;10.23;;;2.92;;
62149;SDS011;48134;53.586;10.610;2024-03-25T05:08:24;10.65;;;3.20;;
62149;SDS011;48134;53.586;10.610;2024-03-25T05:10:50;11.83;;;3.27;;
62149;SDS011;48134;53.586;10.610;2024-03-25T05:13:17;11.82;;;3.53;;
62149;SDS011;48134;53.586;10.610;2024-03-25T05:15:49;11.32;;;2.90;;
62149;SDS011;48134;53.586;10.610;2024-03-25T05:18:17;10.20;;;2.55;;
62149;SDS011;48134;53.586;10.610;2024-03-25T05:20:44;9.35;;;2.55;;
62149;SDS011;48134;53.586;10.610;2024-03-25T05:23:11;10.18;;;3.47;;
62149;SDS011;48134;53.586;10.610;2024-03-25T05:25:37;8.90;;;2.43;;
62149;SDS011;48134;53.586;10.610;2024-03-25T05:28:04;7.53;;;2.33;;
62149;SDS011;48134;53.586;10.610;2024-03-25T05:30:31;10.13;;;2.42;;
62149;SDS011;48134;53.586;10.610;2024-03-25T05:32:57;10.47;;;2.20;;
62149;SDS011;48134;53.586;10.610;2024-03-25T05:35:25;6.90;;;2.20;;
62149;SDS011;48134;53.586;10.610;2024-03-25T05:37:52;8.50;;;2.40;;
62149;SDS011;48134;53.586;10.610;2024-03-25T05:40:18;6.75;;;2.40;;
62149;SDS011;48134;53.586;10.610;2024-03-25T05:42:45;6.97;;;2.28;;
62149;SDS011;48134;53.586;10.610;2024-03-25T05:45:12;8.05;;;2.50;;
62149;SDS011;48134;53.586;10.610;2024-03-25T05:47:38;7.90;;;2.30;;
62149;SDS011;48134;53.586;10.610;2024-03-25T05:50:05;7.82;;;2.08;;
62149;SDS011;48134;53.586;10.610;2024-03-25T05:52:34;10.53;;;2.30;;
62149;SDS011;48134;53.586;10.610;2024-03-25T05:55:01;10.18;;;2.55;;
62149;SDS011;48134;53.586;10.610;2024-03-25T05:57:27;10.95;;;2.25;;
62149;SDS011;48134;53.586;10.610;2024-03-25T05:59:54;6.45;;;2.30;;
62149;SDS011;48134;53.586;10.610;2024-03-25T06:02:20;10.25;;;2.42;;
62149;SDS011;48134;53.586;10.610;2024-03-25T06:04:47;11.20;;;2.40;;
62149;SDS011;48134;53.586;10.610;2024-03-25T06:07:13;6.93;;;2.20;;
62149;SDS011;48134;53.586;10.610;2024-03-25T06:09:41;10.23;;;2.80;;
62149;SDS011;48134;53.586;10.610;2024-03-25T06:12:08;10.70;;;2.85;;
62149;SDS011;48134;53.586;10.610;2024-03-25T06:14:35;10.98;;;2.28;;
62149;SDS011;48134;53.586;10.610;2024-03-25T06:17:01;8.73;;;2.80;;
62149;SDS011;48134;53.586;10.610;2024-03-25T06:19:28;10.20;;;2.40;;
62149;SDS011;48134;53.586;10.610;2024-03-25T06:21:54;13.52;;;3.33;;
62149;SDS011;48134;53.586;10.610;2024-03-25T06:24:21;8.53;;;2.53;;
62149;SDS011;48134;53.586;10.610;2024-03-25T06:26:49;7.07;;;2.60;;
62149;SDS011;48134;53.586;10.610;2024-03-25T06:29:17;9.32;;;2.80;;
62149;SDS011;48134;53.586;10.610;2024-03-25T06:31:44;9.73;;;3.10;;
62149;SDS011;48134;53.586;10.610;2024-03-25T06:34:29;7.28;;;2.70;;
62149;SDS011;48134;53.586;10.610;2024-03-25T06:36:55;6.35;;;2.05;;
62149;SDS011;48134;53.586;10.610;2024-03-25T06:39:22;9.20;;;2.10;;
62149;SDS011;48134;53.586;10.610;2024-03-25T06:41:50;6.93;;;2.28;;
62149;SDS011;48134;53.586;10.610;2024-03-25T06:44:16;6.45;;;2.17;;
62149;SDS011;48134;53.586;10.610;2024-03-25T06:46:43;9.77;;;2.20;;
62149;SDS011;48134;53.586;10.610;2024-03-25T06:49:09;9.00;;;1.92;;
62149;SDS011;48134;53.586;10.610;2024-03-25T06:51:36;4.25;;;1.70;;
62149;SDS011;48134;53.586;10.610;2024-03-25T06:54:02;5.25;;;1.60;;
62149;SDS011;48134;53.586;10.610;2024-03-25T06:56:29;6.45;;;1.92;;
62149;SDS011;48134;53.586;10.610;2024-03-25T06:58:57;7.67;;;1.53;;
62149;SDS011;48134;53.586;10.610;2024-03-25T07:01:23;6.32;;;1.67;;
62149;SDS011;48134;53.586;10.610;2024-03-25T07:03:50;5.13;;;1.50;;
62149;SDS011;48134;53.586;10.610;2024-03-25T07:06:16;5.28;;;1.50;;
62149;SDS011;48134;53.586;10.610;2024-03-25T07:08:43;5.78;;;1.67;;
62149;SDS011;48134;53.586;10.610;2024-03-25T07:11:09;6.23;;;1.63;;
62149;SDS011;48134;53.586;10.610;2024-03-25T07:13:36;6.18;;;1.50;;
62149;SDS011;48134;53.586;10.610;2024-03-25T07:16:04;7.97;;;1.50;;
62149;SDS011;48134;53.586;10.610;2024-03-25T07:18:31;5.35;;;1.30;;
62149;SDS011;48134;53.586;10.610;2024-03-25T07:20:58;7.00;;;1.40;;
62149;SDS011;48134;53.586;10.610;2024-03-25T07:23:24;4.45;;;1.42;;
62149;SDS011;48134;53.586;10.610;2024-03-25T07:25:51;2.40;;;1.10;;
62149;SDS011;48134;53.586;10.610;2024-03-25T07:28:17;5.13;;;1.40;;
62149;SDS011;48134;53.586;10.610;2024-03-25T07:30:44;4.53;;;1.42;;
62149;SDS011;48134;53.586;10.610;2024-03-25T07:33:11;5.47;;;1.60;;
62149;SDS011;48134;53.586;10.610;2024-03-25T07:35:38;4.35;;;1.42;;
62149;SDS011;48134;53.586;10.610;2024-03-25T07:38:04;4.55;;;1.60;;
62149;SDS011;48134;53.586;10.610;2024-03-25T07:40:31;2.97;;;1.38;;
62149;SDS011;48134;53.586;10.610;2024-03-25T07:42:57;3.78;;;1.40;;
62149;SDS011;48134;53.586;10.610;2024-03-25T07:45:24;4.68;;;2.05;;
62149;SDS011;48134;53.586;10.610;2024-03-25T07:47:52;2.97;;;1.30;;
62149;SDS011;48134;53.586;10.610;2024-03-25T07:50:20;4.57;;;1.38;;
62149;SDS011;48134;53.586;10.610;2024-03-25T07:52:46;2.33;;;1.27;;
62149;SDS011;48134;53.586;10.610;2024-03-25T07:55:13;4.83;;;1.50;;
62149;SDS011;48134;53.586;10.610;2024-03-25T07:57:39;2.38;;;1.27;;
62149;SDS011;48134;53.586;10.610;2024-03-25T08:00:06;3.00;;;1.38;;
62149;SDS011;48134;53.586;10.610;2024-03-25T08:02:40;3.55;;;1.33;;
62149;SDS011;48134;53.586;10.610;2024-03-25T08:05:06;5.07;;;1.60;;
62149;SDS011;48134;53.586;10.610;2024-03-25T08:07:34;4.22;;;1.58;;
62149;SDS011;48134;53.586;10.610;2024-03-25T08:10:01;3.42;;;1.60;;
62149;SDS011;48134;53.586;10.610;2024-03-25T08:12:27;7.40;;;2.17;;
62149;SDS011;48134;53.586;10.610;2024-03-25T08:14:54;5.70;;;2.13;;
62149;SDS011;48134;53.586;10.610;2024-03-25T08:17:20;6.33;;;2.40;;
62149;SDS011;48134;53.586;10.610;2024-03-25T08:19:47;6.70;;;2.30;;
62149;SDS011;48134;53.586;10.610;2024-03-25T08:22:13;6.35;;;2.22;;
62149;SDS011;48134;53.586;10.610;2024-03-25T08:24:41;4.55;;;1.90;;
62149;SDS011;48134;53.586;10.610;2024-03-25T08:27:08;5.82;;;1.85;;
62149;SDS011;48134;53.586;10.610;2024-03-25T08:29:35;5.70;;;1.90;;
62149;SDS011;48134;53.586;10.610;2024-03-25T08:32:01;4.90;;;2.08;;
62149;SDS011;48134;53.586;10.610;2024-03-25T08:34:28;5.70;;;2.40;;
62149;SDS011;48134;53.586;10.610;2024-03-25T08:36:55;6.10;;;2.30;;
62149;SDS011;48134;53.586;10.610;2024-03-25T08:39:22;8.00;;;2.33;;
62149;SDS011;48134;53.586;10.610;2024-03-25T08:41:50;7.43;;;2.50;;
62149;SDS011;48134;53.586;10.610;2024-03-25T08:44:17;5.90;;;2.35;;
62149;SDS011;48134;53.586;10.610;2024-03-25T08:46:43;6.25;;;2.20;;
62149;SDS011;48134;53.586;10.610;2024-03-25T08:49:10;6.30;;;2.33;;
62149;SDS011;48134;53.586;10.610;2024-03-25T08:51:37;7.75;;;2.67;;
62149;SDS011;48134;53.586;10.610;2024-03-25T08:54:04;6.10;;;2.50;;
62149;SDS011;48134;53.586;10.610;2024-03-25T08:56:31;6.55;;;2.83;;
62149;SDS011;48134;53.586;10.610;2024-03-25T08:58:59;10.55;;;3.15;;
62149;SDS011;48134;53.586;10.610;2024-03-25T09:01:26;6.70;;;2.50;;
62149;SDS011;48134;53.586;10.610;2024-03-25T09:03:53;9.63;;;2.63;;
62149;SDS011;48134;53.586;10.610;2024-03-25T09:06:19;6.93;;;2.65;;
62149;SDS011;48134;53.586;10.610;2024-03-25T09:08:46;8.27;;;2.25;;
62149;SDS011;48134;53.586;10.610;2024-03-25T09:11:30;7.68;;;2.08;;
62149;SDS011;48134;53.586;10.610;2024-03-25T09:13:58;8.82;;;2.30;;
62149;SDS011;48134;53.586;10.610;2024-03-25T09:16:25;8.27;;;2.22;;
62149;SDS011;48134;53.586;10.610;2024-03-25T09:18:52;7.85;;;2.10;;
62149;SDS011;48134;53.586;10.610;2024-03-25T09:21:19;5.45;;;1.95;;
62149;SDS011;48134;53.586;10.610;2024-03-25T09:23:45;6.90;;;2.10;;
62149;SDS011;48134;53.586;10.610;2024-03-25T09:26:12;5.70;;;1.90;;
62149;SDS011;48134;53.586;10.610;2024-03-25T09:28:38;5.90;;;2.08;;
62149;SDS011;48134;53.586;10.610;2024-03-25T09:31:06;6.90;;;2.30;;
62149;SDS011;48134;53.586;10.610;2024-03-25T09:33:33;6.78;;;1.90;;
62149;SDS011;48134;53.586;10.610;2024-03-25T09:36:00;8.75;;;2.33;;
62149;SDS011;48134;53.586;10.610;2024-03-25T09:38:26;8.80;;;2.30;;
62149;SDS011;48134;53.586;10.610;2024-03-25T09:40:53;8.13;;;2.42;;
62149;SDS011;48134;53.586;10.610;2024-03-25T09:43:21;7.50;;;2.35;;
62149;SDS011;48134;53.586;10.610;2024-03-25T09:45:51;6.03;;;1.95;;
62149;SDS011;48134;53.586;10.610;2024-03-25T09:48:19;6.63;;;1.80;;
62149;SDS011;48134;53.586;10.610;2024-03-25T09:50:47;7.50;;;2.50;;
62149;SDS011;48134;53.586;10.610;2024-03-25T09:53:15;8.55;;;2.05;;
62149;SDS011;48134;53.586;10.610;2024-03-25T09:55:42;7.05;;;2.00;;
62149;SDS011;48134;53.586;10.610;2024-03-25T09:58:09;7.97;;;2.33;;
62149;SDS011;48134;53.586;10.610;2024-03-25T10:00:36;9.93;;;1.83;;
62149;SDS011;48134;53.586;10.610;2024-03-25T10:03:02;9.87;;;2.20;;
62149;SDS011;48134;53.586;10.610;2024-03-25T10:05:30;6.80;;;1.77;;
62149;SDS011;48134;53.586;10.610;2024-03-25T10:07:57;4.20;;;1.50;;
62149;SDS011;48134;53.586;10.610;2024-03-25T10:10:24;8.45;;;2.20;;
62149;SDS011;48134;53.586;10.610;2024-03-25T10:12:50;8.43;;;1.85;;
62149;SDS011;48134;53.586;10.610;2024-03-25T10:15:17;5.95;;;1.65;;
62149;SDS011;48134;53.586;10.610;2024-03-25T10:17:43;8.13;;;2.20;;
62149;SDS011;48134;53.586;10.610;2024-03-25T10:20:13;6.80;;;1.98;;
62149;SDS011;48134;53.586;10.610;2024-03-25T10:22:45;6.97;;;1.90;;
62149;SDS011;48134;53.586;10.610;2024-03-25T10:25:21;6.72;;;1.88;;
62149;SDS011;48134;53.586;10.610;2024-03-25T10:27:52;12.88;;;2.00;;
62149;SDS011;48134;53.586;10.610;2024-03-25T10:30:19;7.47;;;1.57;;
62149;SDS011;48134;53.586;10.610;2024-03-25T10:32:46;5.88;;;1.30;;
62149;SDS011;48134;53.586;10.610;2024-03-25T10:35:24;5.20;;;1.30;;
62149;SDS011;48134;53.586;10.610;2024-03-25T10:37:55;5.35;;;1.38;;
62149;SDS011;48134;53.586;10.610;2024-03-25T10:40:23;5.90;;;1.40;;
62149;SDS011;48134;53.586;10.610;2024-03-25T10:42:55;5.30;;;1.50;;
62149;SDS011;48134;53.586;10.610;2024-03-25T10:45:28;6.65;;;1.40;;
62149;SDS011;48134;53.586;10.610;2024-03-25T10:47:56;5.07;;;1.35;;
62149;SDS011;48134;53.586;10.610;2024-03-25T10:50:26;4.85;;;1.52;;
62149;SDS011;48134;53.586;10.610;2024-03-25T10:52:56;7.47;;;1.65;;
62149;SDS011;48134;53.586;10.610;2024-03-25T10:55:24;8.88;;;1.60;;
62149;SDS011;48134;53.586;10.610;2024-03-25T10:57:53;5.03;;;1.60;;
62149;SDS011;48134;53.586;10.610;2024-03-25T11:00:22;5.38;;;1.35;;
62149;SDS011;48134;53.586;10.610;2024-03-25T11:02:48;7.80;;;1.80;;
62149;SDS011;48134;53.586;10.610;2024-03-25T11:05:17;8.97;;;1.80;;
62149;SDS011;48134;53.586;10.610;2024-03-25T11:07:44;8.25;;;2.17;;
62149;SDS011;48134;53.586;10.610;2024-03-25T11:10:12;6.53;;;1.65;;
62149;SDS011;48134;53.586;10.610;2024-03-25T11:12:40;9.63;;;1.80;;
62149;SDS011;48134;53.586;10.610;2024-03-25T11:15:07;9.20;;;1.83;;
62149;SDS011;48134;53.586;10.610;2024-03-25T11:17:35;10.35;;;2.08;;
62149;SDS011;48134;53.586;10.610;2024-03-25T11:20:08;9.45;;;2.17;;
62149;SDS011;48134;53.586;10.610;2024-03-25T11:22:36;8.80;;;2.00;;
62149;SDS011;48134;53.586;10.610;2024-03-25T11:25:16;10.73;;;2.10;;
62149;SDS011;48134;53.586;10.610;2024-03-25T11:27:43;11.63;;;1.85;;
62149;SDS011;48134;53.586;10.610;2024-03-25T11:30:10;13.37;;;5.10;;
62149;SDS011;48134;53.586;10.610;2024-03-25T11:32:43;6.37;;;2.13;;
62149;SDS011;48134;53.586;10.610;2024-03-25T11:35:11;5.27;;;1.70;;
62149;SDS011;48134;53.586;10.610;2024-03-25T11:37:41;5.47;;;1.40;;
62149;SDS011;48134;53.586;10.610;2024-03-25T11:40:08;7.10;;;1.60;;
62149;SDS011;48134;53.586;10.610;2024-03-25T11:42:37;8.70;;;1.60;;
62149;SDS011;48134;53.586;10.610;2024-03-25T11:45:05;6.43;;;1.63;;
62149;SDS011;48134;53.586;10.610;2024-03-25T11:47:32;6.72;;;1.50;;
62149;SDS011;48134;53.586;10.610;2024-03-25T11:49:59;5.93;;;1.35;;
62149;SDS011;48134;53.586;10.610;2024-03-25T11:52:29;8.77;;;1.70;;
62149;SDS011;48134;53.586;10.610;2024-03-25T11:54:56;7.40;;;1.50;;
62149;SDS011;48134;53.586;10.610;2024-03-25T11:57:23;6.40;;;1.52;;
62149;SDS011;48134;53.586;10.610;2024-03-25T11:59:51;5.93;;;1.80;;
62149;SDS011;48134;53.586;10.610;2024-03-25T12:02:17;9.50;;;1.98;;
62149;SDS011;48134;53.586;10.610;2024-03-25T12:04:44;10.87;;;1.97;;
62149;SDS011;48134;53.586;10.610;2024-03-25T12:07:12;9.63;;;2.50;;
62149;SDS011;48134;53.586;10.610;2024-03-25T12:09:38;9.65;;;2.10;;
62149;SDS011;48134;53.586;10.610;2024-03-25T12:12:20;9.45;;;2.20;;
62149;SDS011;48134;53.586;10.610;2024-03-25T12:14:47;8.50;;;2.15;;
62149;SDS011;48134;53.586;10.610;2024-03-25T12:17:15;7.18;;;1.65;;
62149;SDS011;48134;53.586;10.610;2024-03-25T12:19:44;7.22;;;1.60;;
62149;SDS011;48134;53.586;10.610;2024-03-25T12:22:11;8.13;;;1.55;;
62149;SDS011;48134;53.586;10.610;2024-03-25T12:24:39;6.50;;;1.70;;
62149;SDS011;48134;53.586;10.610;2024-03-25T12:27:05;7.00;;;1.52;;
62149;SDS011;48134;53.586;10.610;2024-03-25T12:29:33;7.80;;;1.60;;
62149;SDS011;48134;53.586;10.610;2024-03-25T12:31:59;8.38;;;1.80;;
62149;SDS011;48134;53.586;10.610;2024-03-25T12:34:29;7.40;;;2.03;;
62149;SDS011;48134;53.586;10.610;2024-03-25T12:37:00;9.05;;;2.22;;
62149;SDS011;48134;53.586;10.610;2024-03-25T12:39:29;12.18;;;2.83;;
62149;SDS011;48134;53.586;10.610;2024-03-25T12:41:55;14.55;;;3.22;;
62149;SDS011;48134;53.586;10.610;2024-03-25T12:44:22;12.30;;;2.90;;
62149;SDS011;48134;53.586;10.610;2024-03-25T12:46:49;7.70;;;2.00;;
62149;SDS011;48134;53.586;10.610;2024-03-25T12:49:16;8.40;;;1.73;;
62149;SDS011;48134;53.586;10.610;2024-03-25T12:51:44;6.35;;;1.77;;
62149;SDS011;48134;53.586;10.610;2024-03-25T12:54:11;7.03;;;1.70;;
62149;SDS011;48134;53.586;10.610;2024-03-25T12:56:37;8.27;;;1.90;;
62149;SDS011;48134;53.586;10.610;2024-03-25T12:59:04;8.85;;;1.90;;
62149;SDS011;48134;53.586;10.610;2024-03-25T13:01:30;7.93;;;1.90;;
62149;SDS011;48134;53.586;10.610;2024-03-25T13:03:57;8.65;;;1.77;;
62149;SDS011;48134;53.586;10.610;2024-03-25T13:06:23;6.72;;;1.50;;
62149;SDS011;48134;53.586;10.610;2024-03-25T13:08:51;11.52;;;1.90;;
62149;SDS011;48134;53.586;10.610;2024-03-25T13:11:18;6.25;;;1.35;;
62149;SDS011;48134;53.586;10.610;2024-03-25T13:13:44;6.90;;;1.52;;
62149;SDS011;48134;53.586;10.610;2024-03-25T13:16:11;7.97;;;1.58;;
62149;SDS011;48134;53.586;10.610;2024-03-25T13:18:38;4.82;;;1.20;;
62149;SDS011;48134;53.586;10.610;2024-03-25T13:21:04;5.05;;;1.25;;
62149;SDS011;48134;53.586;10.610;2024-03-25T13:23:31;5.10;;;1.13;;
62149;SDS011;48134;53.586;10.610;2024-03-25T13:25:59;6.10;;;1.38;;
62149;SDS011;48134;53.586;10.610;2024-03-25T13:28:25;8.73;;;1.58;;
62149;SDS011;48134;53.586;10.610;2024-03-25T13:30:52;4.65;;;1.20;;
62149;SDS011;48134;53.586;10.610;2024-03-25T13:33:18;6.93;;;1.23;;
62149;SDS011;48134;53.586;10.610;2024-03-25T13:35:45;7.50;;;1.40;;
62149;SDS011;48134;53.586;10.610;2024-03-25T13:38:11;7.47;;;1.20;;
62149;SDS011;48134;53.586;10.610;2024-03-25T13:40:38;6.53;;;1.45;;
62149;SDS011;48134;53.586;10.610;2024-03-25T13:43:06;6.72;;;1.45;;
62149;SDS011;48134;53.586;10.610;2024-03-25T13:45:33;7.97;;;1.70;;
62149;SDS011;48134;53.586;10.610;2024-03-25T13:47:59;7.82;;;1.70;;
62149;SDS011;48134;53.586;10.610;2024-03-25T13:50:26;10.68;;;1.80;;
62149;SDS011;48134;53.586;10.610;2024-03-25T13:52:52;7.85;;;1.52;;
62149;SDS011;48134;53.586;10.610;2024-03-25T13:55:19;10.55;;;1.92;;
62149;SDS011;48134;53.586;10.610;2024-03-25T13:57:45;6.25;;;1.52;;
62149;SDS011;48134;53.586;10.610;2024-03-25T14:00:14;8.73;;;1.63;;
62149;SDS011;48134;53.586;10.610;2024-03-25T14:02:41;5.40;;;1.27;;
62149;SDS011;48134;53.586;10.610;2024-03-25T14:05:07;6.47;;;1.60;;
62149;SDS011;48134;53.586;10.610;2024-03-25T14:07:34;7.80;;;1.58;;
62149;SDS011;48134;53.586;10.610;2024-03-25T14:10:01;6.28;;;1.50;;
62149;SDS011;48134;53.586;10.610;2024-03-25T14:12:27;5.75;;;1.20;;
62149;SDS011;48134;53.586;10.610;2024-03-25T14:14:54;9.82;;;1.83;;
62149;SDS011;48134;53.586;10.610;2024-03-25T14:17:21;6.65;;;1.67;;
62149;SDS011;48134;53.586;10.610;2024-03-25T14:19:48;8.95;;;1.60;;
62149;SDS011;48134;53.586;10.610;2024-03-25T14:22:19;7.68;;;1.45;;
62149;SDS011;48134;53.586;10.610;2024-03-25T14:24:45;7.90;;;1.60;;
62149;SDS011;48134;53.586;10.610;2024-03-25T14:27:12;8.43;;;1.40;;
62149;SDS011;48134;53.586;10.610;2024-03-25T14:29:39;9.02;;;1.40;;
62149;SDS011;48134;53.586;10.610;2024-03-25T14:32:06;6.15;;;1.40;;